Atlanta, Indiana
Current Conditions -  °F | °C
As of 4:55 AM on Saturday 25 Oct 2014 (Local Time) from KTYQ Reporting Station
Overcast Overcast  
Wind Chill: 13°   Ceiling: 3700
Heat Index: 13°   Visibility: 7mi
Dew Point: 10°   Wind: 6mph
Humidity: 84%   Direction: 210°SSW
Pressure: 29.96"   Gusts: NA
Location:  40.22°N, 86.03°W
Report Text: KTYQ 250855Z AUTO 21005KT 7SM BKN037 OVC075 13/10 A2996 RMK AO2 T01250099
Loading
Personal Weather Stations






























Interactive Weather Map
Tropical Storm Tracking
New forecast layout! Learn more

10-Day Weather Forecast

Advertisements
Track Severe Weather on mobile